sensor_id;sensor_type;location;lat;lon;timestamp;P1;durP1;ratioP1;P2;durP2;ratioP2
54271;SDS011;40184;53.362;5.216;2023-04-03T00:02:05;2.30;;;0.85;;
54271;SDS011;40184;53.362;5.216;2023-04-03T00:04:31;3.13;;;1.20;;
54271;SDS011;40184;53.362;5.216;2023-04-03T00:06:56;3.70;;;1.25;;
54271;SDS011;40184;53.362;5.216;2023-04-03T00:09:22;3.50;;;1.10;;
54271;SDS011;40184;53.362;5.216;2023-04-03T00:11:48;3.97;;;1.15;;
54271;SDS011;40184;53.362;5.216;2023-04-03T00:14:13;2.25;;;1.25;;
54271;SDS011;40184;53.362;5.216;2023-04-03T00:16:39;1.85;;;1.20;;
54271;SDS011;40184;53.362;5.216;2023-04-03T00:19:05;3.75;;;1.15;;
54271;SDS011;40184;53.362;5.216;2023-04-03T00:21:30;5.13;;;1.30;;
54271;SDS011;40184;53.362;5.216;2023-04-03T00:23:56;6.57;;;1.65;;
54271;SDS011;40184;53.362;5.216;2023-04-03T00:26:22;4.70;;;2.08;;
54271;SDS011;40184;53.362;5.216;2023-04-03T00:28:47;5.18;;;1.27;;
54271;SDS011;40184;53.362;5.216;2023-04-03T00:31:14;2.25;;;1.00;;
54271;SDS011;40184;53.362;5.216;2023-04-03T00:33:41;3.83;;;1.10;;
54271;SDS011;40184;53.362;5.216;2023-04-03T00:36:08;2.55;;;0.95;;
54271;SDS011;40184;53.362;5.216;2023-04-03T00:38:34;6.70;;;1.40;;
54271;SDS011;40184;53.362;5.216;2023-04-03T00:41:00;4.75;;;1.38;;
54271;SDS011;40184;53.362;5.216;2023-04-03T00:43:26;3.72;;;1.40;;
54271;SDS011;40184;53.362;5.216;2023-04-03T00:45:53;1.20;;;0.60;;
54271;SDS011;40184;53.362;5.216;2023-04-03T00:48:30;1.33;;;0.77;;
54271;SDS011;40184;53.362;5.216;2023-04-03T00:51:03;1.30;;;1.13;;
54271;SDS011;40184;53.362;5.216;2023-04-03T00:53:33;2.10;;;1.10;;
54271;SDS011;40184;53.362;5.216;2023-04-03T00:56:02;1.95;;;0.90;;
54271;SDS011;40184;53.362;5.216;2023-04-03T00:58:36;4.17;;;1.40;;
54271;SDS011;40184;53.362;5.216;2023-04-03T01:01:06;4.68;;;1.90;;
54271;SDS011;40184;53.362;5.216;2023-04-03T01:03:35;3.92;;;1.15;;
54271;SDS011;40184;53.362;5.216;2023-04-03T01:06:01;2.58;;;0.93;;
54271;SDS011;40184;53.362;5.216;2023-04-03T01:08:26;2.08;;;0.90;;
54271;SDS011;40184;53.362;5.216;2023-04-03T01:10:52;2.05;;;1.08;;
54271;SDS011;40184;53.362;5.216;2023-04-03T01:13:25;4.05;;;1.08;;
54271;SDS011;40184;53.362;5.216;2023-04-03T01:15:53;4.15;;;0.70;;
54271;SDS011;40184;53.362;5.216;2023-04-03T01:18:19;6.85;;;2.15;;
54271;SDS011;40184;53.362;5.216;2023-04-03T01:23:26;12.60;;;1.10;;
54271;SDS011;40184;53.362;5.216;2023-04-03T01:25:57;2.28;;;0.93;;
54271;SDS011;40184;53.362;5.216;2023-04-03T01:28:27;3.08;;;0.90;;
54271;SDS011;40184;53.362;5.216;2023-04-03T01:35:53;1.30;;;0.82;;
54271;SDS011;40184;53.362;5.216;2023-04-03T01:38:18;5.80;;;1.48;;
54271;SDS011;40184;53.362;5.216;2023-04-03T01:40:44;2.72;;;0.90;;
54271;SDS011;40184;53.362;5.216;2023-04-03T01:43:10;2.05;;;1.13;;
54271;SDS011;40184;53.362;5.216;2023-04-03T01:45:35;2.90;;;0.95;;
54271;SDS011;40184;53.362;5.216;2023-04-03T01:48:01;2.17;;;0.90;;
54271;SDS011;40184;53.362;5.216;2023-04-03T01:50:27;1.33;;;0.90;;
54271;SDS011;40184;53.362;5.216;2023-04-03T01:52:52;1.65;;;0.77;;
54271;SDS011;40184;53.362;5.216;2023-04-03T01:55:18;3.35;;;1.08;;
54271;SDS011;40184;53.362;5.216;2023-04-03T01:57:44;1.77;;;0.93;;
54271;SDS011;40184;53.362;5.216;2023-04-03T02:00:09;5.32;;;1.30;;
54271;SDS011;40184;53.362;5.216;2023-04-03T02:02:35;2.08;;;0.82;;
54271;SDS011;40184;53.362;5.216;2023-04-03T02:05:01;3.13;;;1.02;;
54271;SDS011;40184;53.362;5.216;2023-04-03T02:07:27;2.70;;;0.93;;
54271;SDS011;40184;53.362;5.216;2023-04-03T02:09:52;2.97;;;1.02;;
54271;SDS011;40184;53.362;5.216;2023-04-03T02:12:18;1.52;;;0.77;;
54271;SDS011;40184;53.362;5.216;2023-04-03T02:14:44;1.13;;;0.50;;
54271;SDS011;40184;53.362;5.216;2023-04-03T02:17:10;2.75;;;0.82;;
54271;SDS011;40184;53.362;5.216;2023-04-03T02:19:36;3.78;;;1.02;;
54271;SDS011;40184;53.362;5.216;2023-04-03T02:22:02;3.28;;;1.13;;
54271;SDS011;40184;53.362;5.216;2023-04-03T02:24:29;2.55;;;0.77;;
54271;SDS011;40184;53.362;5.216;2023-04-03T02:26:55;1.92;;;0.93;;
54271;SDS011;40184;53.362;5.216;2023-04-03T02:29:20;6.40;;;1.33;;
54271;SDS011;40184;53.362;5.216;2023-04-03T02:31:46;4.15;;;0.90;;
54271;SDS011;40184;53.362;5.216;2023-04-03T02:34:12;4.30;;;2.38;;
54271;SDS011;40184;53.362;5.216;2023-04-03T02:36:39;1.92;;;0.73;;
54271;SDS011;40184;53.362;5.216;2023-04-03T02:39:04;2.08;;;1.30;;
54271;SDS011;40184;53.362;5.216;2023-04-03T02:41:31;3.65;;;1.15;;
54271;SDS011;40184;53.362;5.216;2023-04-03T02:44:04;1.92;;;0.77;;
54271;SDS011;40184;53.362;5.216;2023-04-03T02:46:31;5.38;;;0.93;;
54271;SDS011;40184;53.362;5.216;2023-04-03T02:48:57;5.97;;;1.50;;
54271;SDS011;40184;53.362;5.216;2023-04-03T02:51:22;2.55;;;1.00;;
54271;SDS011;40184;53.362;5.216;2023-04-03T02:53:48;3.15;;;1.15;;
54271;SDS011;40184;53.362;5.216;2023-04-03T02:56:15;2.35;;;1.27;;
54271;SDS011;40184;53.362;5.216;2023-04-03T02:58:42;4.00;;;1.00;;
54271;SDS011;40184;53.362;5.216;2023-04-03T03:01:08;3.88;;;1.20;;
54271;SDS011;40184;53.362;5.216;2023-04-03T03:03:33;7.40;;;1.95;;
54271;SDS011;40184;53.362;5.216;2023-04-03T03:06:17;3.75;;;1.23;;
54271;SDS011;40184;53.362;5.216;2023-04-03T03:08:43;5.38;;;1.27;;
54271;SDS011;40184;53.362;5.216;2023-04-03T03:11:09;6.05;;;1.25;;
54271;SDS011;40184;53.362;5.216;2023-04-03T03:13:36;4.28;;;1.55;;
54271;SDS011;40184;53.362;5.216;2023-04-03T03:16:02;4.28;;;1.27;;
54271;SDS011;40184;53.362;5.216;2023-04-03T03:18:28;3.88;;;1.48;;
54271;SDS011;40184;53.362;5.216;2023-04-03T03:20:55;4.10;;;1.58;;
54271;SDS011;40184;53.362;5.216;2023-04-03T03:23:22;2.80;;;1.23;;
54271;SDS011;40184;53.362;5.216;2023-04-03T03:25:49;4.45;;;1.67;;
54271;SDS011;40184;53.362;5.216;2023-04-03T03:28:23;4.00;;;1.52;;
54271;SDS011;40184;53.362;5.216;2023-04-03T03:30:49;4.57;;;1.48;;
54271;SDS011;40184;53.362;5.216;2023-04-03T03:33:15;2.28;;;1.15;;
54271;SDS011;40184;53.362;5.216;2023-04-03T03:35:42;4.97;;;1.48;;
54271;SDS011;40184;53.362;5.216;2023-04-03T03:38:08;6.20;;;1.85;;
54271;SDS011;40184;53.362;5.216;2023-04-03T03:40:34;5.65;;;1.80;;
54271;SDS011;40184;53.362;5.216;2023-04-03T03:43:00;3.65;;;1.67;;
54271;SDS011;40184;53.362;5.216;2023-04-03T03:45:26;6.55;;;1.42;;
54271;SDS011;40184;53.362;5.216;2023-04-03T03:47:51;6.05;;;1.77;;
54271;SDS011;40184;53.362;5.216;2023-04-03T03:50:17;3.60;;;1.73;;
54271;SDS011;40184;53.362;5.216;2023-04-03T03:52:43;7.80;;;2.65;;
54271;SDS011;40184;53.362;5.216;2023-04-03T03:55:09;4.70;;;1.55;;
54271;SDS011;40184;53.362;5.216;2023-04-03T03:57:35;5.32;;;1.77;;
54271;SDS011;40184;53.362;5.216;2023-04-03T04:00:01;6.30;;;2.17;;
54271;SDS011;40184;53.362;5.216;2023-04-03T04:02:29;6.57;;;2.22;;
54271;SDS011;40184;53.362;5.216;2023-04-03T04:04:54;5.97;;;1.50;;
54271;SDS011;40184;53.362;5.216;2023-04-03T04:07:20;5.18;;;1.90;;
54271;SDS011;40184;53.362;5.216;2023-04-03T04:09:46;3.80;;;1.60;;
54271;SDS011;40184;53.362;5.216;2023-04-03T04:12:12;19.75;;;1.90;;
54271;SDS011;40184;53.362;5.216;2023-04-03T04:14:37;6.53;;;2.03;;
54271;SDS011;40184;53.362;5.216;2023-04-03T04:17:03;4.95;;;1.67;;
54271;SDS011;40184;53.362;5.216;2023-04-03T04:19:29;6.25;;;2.42;;
54271;SDS011;40184;53.362;5.216;2023-04-03T04:21:54;10.77;;;1.90;;
54271;SDS011;40184;53.362;5.216;2023-04-03T04:24:20;12.10;;;2.70;;
54271;SDS011;40184;53.362;5.216;2023-04-03T04:26:47;4.55;;;1.67;;
54271;SDS011;40184;53.362;5.216;2023-04-03T04:29:13;5.28;;;1.92;;
54271;SDS011;40184;53.362;5.216;2023-04-03T04:31:39;6.70;;;1.92;;
54271;SDS011;40184;53.362;5.216;2023-04-03T04:34:05;5.78;;;1.73;;
54271;SDS011;40184;53.362;5.216;2023-04-03T04:36:31;4.95;;;1.75;;
54271;SDS011;40184;53.362;5.216;2023-04-03T04:38:56;6.80;;;2.17;;
54271;SDS011;40184;53.362;5.216;2023-04-03T04:41:23;4.50;;;1.70;;
54271;SDS011;40184;53.362;5.216;2023-04-03T04:43:50;6.90;;;2.35;;
54271;SDS011;40184;53.362;5.216;2023-04-03T04:46:16;3.78;;;1.52;;
54271;SDS011;40184;53.362;5.216;2023-04-03T04:48:43;7.13;;;1.85;;
54271;SDS011;40184;53.362;5.216;2023-04-03T04:51:09;5.60;;;2.38;;
54271;SDS011;40184;53.362;5.216;2023-04-03T04:53:35;4.43;;;1.70;;
54271;SDS011;40184;53.362;5.216;2023-04-03T04:56:01;6.25;;;2.95;;
54271;SDS011;40184;53.362;5.216;2023-04-03T04:58:26;4.45;;;1.60;;
54271;SDS011;40184;53.362;5.216;2023-04-03T05:01:02;7.13;;;2.00;;
54271;SDS011;40184;53.362;5.216;2023-04-03T05:03:30;8.90;;;2.38;;
54271;SDS011;40184;53.362;5.216;2023-04-03T05:05:55;7.38;;;2.05;;
54271;SDS011;40184;53.362;5.216;2023-04-03T05:08:21;7.07;;;1.92;;
54271;SDS011;40184;53.362;5.216;2023-04-03T05:10:47;3.83;;;2.05;;
54271;SDS011;40184;53.362;5.216;2023-04-03T05:13:13;4.60;;;2.10;;
54271;SDS011;40184;53.362;5.216;2023-04-03T05:15:39;8.65;;;2.13;;
54271;SDS011;40184;53.362;5.216;2023-04-03T05:18:05;5.90;;;2.25;;
54271;SDS011;40184;53.362;5.216;2023-04-03T05:20:31;7.47;;;2.25;;
54271;SDS011;40184;53.362;5.216;2023-04-03T05:22:57;8.30;;;2.25;;
54271;SDS011;40184;53.362;5.216;2023-04-03T05:25:23;5.90;;;1.98;;
54271;SDS011;40184;53.362;5.216;2023-04-03T05:27:49;8.38;;;2.10;;
54271;SDS011;40184;53.362;5.216;2023-04-03T05:30:15;4.68;;;1.52;;
54271;SDS011;40184;53.362;5.216;2023-04-03T05:32:41;4.35;;;1.80;;
54271;SDS011;40184;53.362;5.216;2023-04-03T05:35:07;6.85;;;2.05;;
54271;SDS011;40184;53.362;5.216;2023-04-03T05:37:34;5.88;;;1.90;;
54271;SDS011;40184;53.362;5.216;2023-04-03T05:40:00;4.10;;;1.92;;
54271;SDS011;40184;53.362;5.216;2023-04-03T05:42:25;3.65;;;1.50;;
54271;SDS011;40184;53.362;5.216;2023-04-03T05:44:51;5.95;;;1.92;;
54271;SDS011;40184;53.362;5.216;2023-04-03T05:47:17;6.13;;;1.65;;
54271;SDS011;40184;53.362;5.216;2023-04-03T05:49:44;6.82;;;1.80;;
54271;SDS011;40184;53.362;5.216;2023-04-03T05:52:17;6.65;;;2.33;;
54271;SDS011;40184;53.362;5.216;2023-04-03T05:54:51;7.10;;;2.60;;
54271;SDS011;40184;53.362;5.216;2023-04-03T05:57:17;17.75;;;3.72;;
54271;SDS011;40184;53.362;5.216;2023-04-03T05:59:43;6.68;;;3.40;;
54271;SDS011;40184;53.362;5.216;2023-04-03T06:02:11;8.30;;;2.55;;
54271;SDS011;40184;53.362;5.216;2023-04-03T06:04:38;8.73;;;2.60;;
54271;SDS011;40184;53.362;5.216;2023-04-03T06:07:04;8.13;;;2.53;;
54271;SDS011;40184;53.362;5.216;2023-04-03T06:09:29;9.35;;;2.97;;
54271;SDS011;40184;53.362;5.216;2023-04-03T06:11:56;8.68;;;2.67;;
54271;SDS011;40184;53.362;5.216;2023-04-03T06:14:24;7.35;;;2.70;;
54271;SDS011;40184;53.362;5.216;2023-04-03T06:16:51;6.70;;;3.25;;
54271;SDS011;40184;53.362;5.216;2023-04-03T06:19:17;8.27;;;2.47;;
54271;SDS011;40184;53.362;5.216;2023-04-03T06:21:43;8.40;;;3.75;;
54271;SDS011;40184;53.362;5.216;2023-04-03T06:24:09;7.35;;;3.35;;
54271;SDS011;40184;53.362;5.216;2023-04-03T06:26:38;17.55;;;4.63;;
54271;SDS011;40184;53.362;5.216;2023-04-03T06:29:04;13.27;;;4.10;;
54271;SDS011;40184;53.362;5.216;2023-04-03T06:31:29;10.00;;;3.20;;
54271;SDS011;40184;53.362;5.216;2023-04-03T06:33:55;8.27;;;2.63;;
54271;SDS011;40184;53.362;5.216;2023-04-03T06:36:21;8.50;;;2.40;;
54271;SDS011;40184;53.362;5.216;2023-04-03T06:38:47;9.07;;;2.60;;
54271;SDS011;40184;53.362;5.216;2023-04-03T06:41:13;8.43;;;2.15;;
54271;SDS011;40184;53.362;5.216;2023-04-03T06:43:41;7.57;;;2.47;;
54271;SDS011;40184;53.362;5.216;2023-04-03T06:46:10;5.15;;;2.15;;
54271;SDS011;40184;53.362;5.216;2023-04-03T06:48:39;6.10;;;2.45;;
54271;SDS011;40184;53.362;5.216;2023-04-03T06:51:05;7.38;;;2.22;;
54271;SDS011;40184;53.362;5.216;2023-04-03T06:53:30;7.00;;;2.67;;
54271;SDS011;40184;53.362;5.216;2023-04-03T06:55:56;9.38;;;2.95;;
54271;SDS011;40184;53.362;5.216;2023-04-03T06:58:21;8.65;;;2.10;;
54271;SDS011;40184;53.362;5.216;2023-04-03T07:00:47;7.35;;;2.05;;
54271;SDS011;40184;53.362;5.216;2023-04-03T07:03:13;4.80;;;2.17;;
54271;SDS011;40184;53.362;5.216;2023-04-03T07:05:38;8.98;;;2.50;;
54271;SDS011;40184;53.362;5.216;2023-04-03T07:08:04;3.47;;;1.88;;
54271;SDS011;40184;53.362;5.216;2023-04-03T07:10:31;8.00;;;1.95;;
54271;SDS011;40184;53.362;5.216;2023-04-03T07:12:56;5.95;;;1.88;;
54271;SDS011;40184;53.362;5.216;2023-04-03T07:15:22;8.40;;;2.75;;
54271;SDS011;40184;53.362;5.216;2023-04-03T07:17:49;3.70;;;2.08;;
54271;SDS011;40184;53.362;5.216;2023-04-03T07:20:14;7.93;;;2.17;;
54271;SDS011;40184;53.362;5.216;2023-04-03T07:22:40;10.50;;;2.20;;
54271;SDS011;40184;53.362;5.216;2023-04-03T07:25:06;5.03;;;1.70;;
54271;SDS011;40184;53.362;5.216;2023-04-03T07:27:32;5.20;;;2.17;;
54271;SDS011;40184;53.362;5.216;2023-04-03T07:29:58;3.20;;;1.88;;
54271;SDS011;40184;53.362;5.216;2023-04-03T07:32:24;9.63;;;2.08;;
54271;SDS011;40184;53.362;5.216;2023-04-03T07:34:50;5.03;;;2.10;;
54271;SDS011;40184;53.362;5.216;2023-04-03T07:37:16;4.78;;;2.22;;
54271;SDS011;40184;53.362;5.216;2023-04-03T07:39:45;3.67;;;2.03;;
54271;SDS011;40184;53.362;5.216;2023-04-03T07:42:11;7.95;;;1.77;;
54271;SDS011;40184;53.362;5.216;2023-04-03T07:44:37;5.40;;;1.80;;
54271;SDS011;40184;53.362;5.216;2023-04-03T07:47:03;10.13;;;3.00;;
54271;SDS011;40184;53.362;5.216;2023-04-03T07:49:28;6.93;;;2.50;;
54271;SDS011;40184;53.362;5.216;2023-04-03T07:51:55;8.25;;;3.03;;
54271;SDS011;40184;53.362;5.216;2023-04-03T07:54:20;5.03;;;2.28;;
54271;SDS011;40184;53.362;5.216;2023-04-03T07:56:46;10.10;;;2.13;;
54271;SDS011;40184;53.362;5.216;2023-04-03T07:59:12;7.43;;;2.47;;
54271;SDS011;40184;53.362;5.216;2023-04-03T08:01:37;6.45;;;3.05;;
54271;SDS011;40184;53.362;5.216;2023-04-03T08:04:03;11.77;;;2.20;;
54271;SDS011;40184;53.362;5.216;2023-04-03T08:06:30;5.43;;;2.20;;
54271;SDS011;40184;53.362;5.216;2023-04-03T08:08:58;5.82;;;2.42;;
54271;SDS011;40184;53.362;5.216;2023-04-03T08:11:24;11.98;;;2.80;;
54271;SDS011;40184;53.362;5.216;2023-04-03T08:13:51;6.05;;;1.75;;
54271;SDS011;40184;53.362;5.216;2023-04-03T08:16:18;6.60;;;2.08;;
54271;SDS011;40184;53.362;5.216;2023-04-03T08:18:48;4.80;;;1.92;;
54271;SDS011;40184;53.362;5.216;2023-04-03T08:21:14;6.60;;;2.80;;
54271;SDS011;40184;53.362;5.216;2023-04-03T08:23:40;6.65;;;2.08;;
54271;SDS011;40184;53.362;5.216;2023-04-03T08:26:13;6.68;;;2.50;;
54271;SDS011;40184;53.362;5.216;2023-04-03T08:28:40;6.03;;;2.53;;
54271;SDS011;40184;53.362;5.216;2023-04-03T08:31:07;6.75;;;2.08;;
54271;SDS011;40184;53.362;5.216;2023-04-03T08:33:36;7.63;;;2.67;;
54271;SDS011;40184;53.362;5.216;2023-04-03T08:36:05;7.75;;;3.20;;
54271;SDS011;40184;53.362;5.216;2023-04-03T08:38:33;5.47;;;1.92;;
54271;SDS011;40184;53.362;5.216;2023-04-03T08:46:46;6.88;;;2.20;;
54271;SDS011;40184;53.362;5.216;2023-04-03T08:49:26;7.78;;;2.42;;
54271;SDS011;40184;53.362;5.216;2023-04-03T08:51:56;7.82;;;2.50;;
54271;SDS011;40184;53.362;5.216;2023-04-03T08:54:32;7.40;;;3.25;;
54271;SDS011;40184;53.362;5.216;2023-04-03T08:57:03;7.03;;;2.05;;
54271;SDS011;40184;53.362;5.216;2023-04-03T08:59:33;6.05;;;2.22;;
54271;SDS011;40184;53.362;5.216;2023-04-03T09:02:01;5.10;;;2.00;;
54271;SDS011;40184;53.362;5.216;2023-04-03T09:04:35;3.30;;;1.83;;
54271;SDS011;40184;53.362;5.216;2023-04-03T09:07:03;3.85;;;1.73;;
54271;SDS011;40184;53.362;5.216;2023-04-03T09:09:41;7.00;;;2.55;;
54271;SDS011;40184;53.362;5.216;2023-04-03T09:12:24;7.68;;;2.30;;
54271;SDS011;40184;53.362;5.216;2023-04-03T09:15:37;3.55;;;1.75;;
54271;SDS011;40184;53.362;5.216;2023-04-03T09:20:38;5.72;;;2.22;;
54271;SDS011;40184;53.362;5.216;2023-04-03T09:23:26;7.03;;;2.35;;
54271;SDS011;40184;53.362;5.216;2023-04-03T09:28:47;6.15;;;2.35;;
54271;SDS011;40184;53.362;5.216;2023-04-03T09:33:48;5.72;;;2.08;;
54271;SDS011;40184;53.362;5.216;2023-04-03T09:36:36;4.07;;;1.88;;
54271;SDS011;40184;53.362;5.216;2023-04-03T09:39:26;3.53;;;1.60;;
54271;SDS011;40184;53.362;5.216;2023-04-03T09:42:00;8.73;;;1.83;;
54271;SDS011;40184;53.362;5.216;2023-04-03T09:44:33;3.65;;;2.13;;
54271;SDS011;40184;53.362;5.216;2023-04-03T09:49:54;5.15;;;2.22;;
54271;SDS011;40184;53.362;5.216;2023-04-03T09:52:34;6.10;;;1.95;;
54271;SDS011;40184;53.362;5.216;2023-04-03T09:55:06;7.97;;;2.17;;
54271;SDS011;40184;53.362;5.216;2023-04-03T09:57:43;6.97;;;1.80;;
54271;SDS011;40184;53.362;5.216;2023-04-03T10:00:21;5.15;;;2.60;;
54271;SDS011;40184;53.362;5.216;2023-04-03T10:02:51;7.60;;;2.20;;
54271;SDS011;40184;53.362;5.216;2023-04-03T10:05:33;7.32;;;2.10;;
54271;SDS011;40184;53.362;5.216;2023-04-03T10:08:08;4.68;;;1.67;;
54271;SDS011;40184;53.362;5.216;2023-04-03T10:10:34;11.13;;;2.45;;
54271;SDS011;40184;53.362;5.216;2023-04-03T10:15:56;2.65;;;1.80;;
54271;SDS011;40184;53.362;5.216;2023-04-03T10:18:49;4.43;;;1.60;;
54271;SDS011;40184;53.362;5.216;2023-04-03T10:24:10;6.30;;;2.15;;
54271;SDS011;40184;53.362;5.216;2023-04-03T10:27:01;3.30;;;1.50;;
54271;SDS011;40184;53.362;5.216;2023-04-03T10:38:03;6.18;;;1.92;;
54271;SDS011;40184;53.362;5.216;2023-04-03T10:43:19;4.75;;;2.40;;
54271;SDS011;40184;53.362;5.216;2023-04-03T10:46:15;5.47;;;1.67;;
54271;SDS011;40184;53.362;5.216;2023-04-03T10:51:24;5.85;;;2.03;;
54271;SDS011;40184;53.362;5.216;2023-04-03T10:54:04;4.05;;;1.55;;
54271;SDS011;40184;53.362;5.216;2023-04-03T10:56:40;1.58;;;1.27;;
54271;SDS011;40184;53.362;5.216;2023-04-03T10:59:26;3.60;;;1.42;;
54271;SDS011;40184;53.362;5.216;2023-04-03T11:02:04;4.82;;;1.48;;
54271;SDS011;40184;53.362;5.216;2023-04-03T11:04:37;9.27;;;2.85;;
54271;SDS011;40184;53.362;5.216;2023-04-03T11:07:17;2.28;;;1.67;;
54271;SDS011;40184;53.362;5.216;2023-04-03T11:09:50;2.72;;;1.60;;
54271;SDS011;40184;53.362;5.216;2023-04-03T11:12:25;2.13;;;1.27;;
54271;SDS011;40184;53.362;5.216;2023-04-03T11:15:01;2.72;;;1.20;;
54271;SDS011;40184;53.362;5.216;2023-04-03T11:17:41;4.50;;;1.30;;
54271;SDS011;40184;53.362;5.216;2023-04-03T11:20:20;2.90;;;1.20;;
54271;SDS011;40184;53.362;5.216;2023-04-03T11:25:47;3.28;;;1.48;;
54271;SDS011;40184;53.362;5.216;2023-04-03T11:28:17;2.65;;;1.40;;
54271;SDS011;40184;53.362;5.216;2023-04-03T11:30:52;5.15;;;1.30;;
54271;SDS011;40184;53.362;5.216;2023-04-03T11:36:04;2.97;;;1.42;;
54271;SDS011;40184;53.362;5.216;2023-04-03T11:38:50;2.78;;;1.05;;
54271;SDS011;40184;53.362;5.216;2023-04-03T11:41:24;2.25;;;1.33;;
54271;SDS011;40184;53.362;5.216;2023-04-03T11:57:47;2.78;;;1.15;;
54271;SDS011;40184;53.362;5.216;2023-04-03T12:06:41;1.33;;;0.70;;
54271;SDS011;40184;53.362;5.216;2023-04-03T12:08:44;4.55;;;0.98;;
54271;SDS011;40184;53.362;5.216;2023-04-03T12:21:22;1.75;;;0.93;;
54271;SDS011;40184;53.362;5.216;2023-04-03T12:45:21;2.53;;;1.00;;
54271;SDS011;40184;53.362;5.216;2023-04-03T12:47:57;1.60;;;0.90;;
54271;SDS011;40184;53.362;5.216;2023-04-03T12:50:28;4.50;;;1.52;;
54271;SDS011;40184;53.362;5.216;2023-04-03T12:53:06;6.05;;;1.25;;
54271;SDS011;40184;53.362;5.216;2023-04-03T12:55:37;6.38;;;1.88;;
54271;SDS011;40184;53.362;5.216;2023-04-03T13:00:58;2.63;;;1.48;;
54271;SDS011;40184;53.362;5.216;2023-04-03T13:03:47;2.00;;;1.17;;
54271;SDS011;40184;53.362;5.216;2023-04-03T13:06:17;4.43;;;1.40;;
54271;SDS011;40184;53.362;5.216;2023-04-03T13:11:22;1.67;;;1.08;;
54271;SDS011;40184;53.362;5.216;2023-04-03T13:14:32;3.03;;;1.10;;
54271;SDS011;40184;53.362;5.216;2023-04-03T13:16:40;3.40;;;1.40;;
54271;SDS011;40184;53.362;5.216;2023-04-03T13:19:06;2.67;;;1.17;;
54271;SDS011;40184;53.362;5.216;2023-04-03T13:21:43;2.42;;;0.98;;
54271;SDS011;40184;53.362;5.216;2023-04-03T13:24:10;2.25;;;1.08;;
54271;SDS011;40184;53.362;5.216;2023-04-03T13:26:36;3.67;;;1.00;;
54271;SDS011;40184;53.362;5.216;2023-04-03T13:29:03;1.90;;;1.00;;
54271;SDS011;40184;53.362;5.216;2023-04-03T13:31:33;6.28;;;1.45;;
54271;SDS011;40184;53.362;5.216;2023-04-03T13:34:17;2.22;;;1.05;;
54271;SDS011;40184;53.362;5.216;2023-04-03T13:36:45;2.97;;;1.08;;
54271;SDS011;40184;53.362;5.216;2023-04-03T13:41:41;4.00;;;1.33;;
54271;SDS011;40184;53.362;5.216;2023-04-03T13:46:54;2.70;;;0.98;;
54271;SDS011;40184;53.362;5.216;2023-04-03T13:51:53;3.80;;;1.03;;
54271;SDS011;40184;53.362;5.216;2023-04-03T13:54:23;4.55;;;1.52;;
54271;SDS011;40184;53.362;5.216;2023-04-03T13:56:56;2.90;;;1.38;;
54271;SDS011;40184;53.362;5.216;2023-04-03T13:59:24;3.78;;;1.05;;
54271;SDS011;40184;53.362;5.216;2023-04-03T14:01:56;2.63;;;1.10;;
54271;SDS011;40184;53.362;5.216;2023-04-03T14:07:08;2.45;;;1.20;;
54271;SDS011;40184;53.362;5.216;2023-04-03T14:09:35;1.98;;;1.23;;
54271;SDS011;40184;53.362;5.216;2023-04-03T14:12:08;3.75;;;1.40;;
54271;SDS011;40184;53.362;5.216;2023-04-03T14:14:41;4.15;;;1.60;;
54271;SDS011;40184;53.362;5.216;2023-04-03T14:17:18;4.32;;;1.20;;
54271;SDS011;40184;53.362;5.216;2023-04-03T14:19:47;2.88;;;1.02;;
54271;SDS011;40184;53.362;5.216;2023-04-03T14:22:16;4.22;;;1.80;;
54271;SDS011;40184;53.362;5.216;2023-04-03T14:24:50;5.50;;;1.58;;
54271;SDS011;40184;53.362;5.216;2023-04-03T14:27:25;2.88;;;1.58;;
54271;SDS011;40184;53.362;5.216;2023-04-03T14:29:53;2.38;;;1.30;;
54271;SDS011;40184;53.362;5.216;2023-04-03T14:32:21;2.78;;;1.10;;
54271;SDS011;40184;53.362;5.216;2023-04-03T14:34:49;4.75;;;1.33;;
54271;SDS011;40184;53.362;5.216;2023-04-03T14:37:21;10.20;;;1.45;;
54271;SDS011;40184;53.362;5.216;2023-04-03T14:39:49;7.68;;;0.95;;
54271;SDS011;40184;53.362;5.216;2023-04-03T14:42:22;3.08;;;1.00;;
54271;SDS011;40184;53.362;5.216;2023-04-03T14:44:50;4.75;;;1.45;;
54271;SDS011;40184;53.362;5.216;2023-04-03T14:47:21;5.72;;;1.10;;
54271;SDS011;40184;53.362;5.216;2023-04-03T14:52:36;3.60;;;1.55;;
54271;SDS011;40184;53.362;5.216;2023-04-03T14:55:02;4.07;;;0.98;;
54271;SDS011;40184;53.362;5.216;2023-04-03T14:57:29;8.98;;;1.42;;
54271;SDS011;40184;53.362;5.216;2023-04-03T14:59:55;2.25;;;0.93;;
54271;SDS011;40184;53.362;5.216;2023-04-03T15:02:29;6.07;;;1.27;;
54271;SDS011;40184;53.362;5.216;2023-04-03T15:04:59;3.65;;;1.20;;
54271;SDS011;40184;53.362;5.216;2023-04-03T15:07:29;3.97;;;0.98;;
54271;SDS011;40184;53.362;5.216;2023-04-03T15:09:56;3.80;;;0.90;;
54271;SDS011;40184;53.362;5.216;2023-04-03T15:12:22;2.13;;;1.20;;
54271;SDS011;40184;53.362;5.216;2023-04-03T15:14:49;6.72;;;1.33;;
54271;SDS011;40184;53.362;5.216;2023-04-03T15:17:15;2.28;;;1.15;;
54271;SDS011;40184;53.362;5.216;2023-04-03T15:19:45;6.88;;;1.35;;
54271;SDS011;40184;53.362;5.216;2023-04-03T15:22:14;2.45;;;0.88;;
54271;SDS011;40184;53.362;5.216;2023-04-03T15:24:43;6.07;;;1.40;;
54271;SDS011;40184;53.362;5.216;2023-04-03T15:27:09;7.10;;;1.40;;
54271;SDS011;40184;53.362;5.216;2023-04-03T15:29:36;5.53;;;1.52;;
54271;SDS011;40184;53.362;5.216;2023-04-03T15:32:03;10.73;;;1.50;;
54271;SDS011;40184;53.362;5.216;2023-04-03T15:34:31;5.30;;;1.50;;
54271;SDS011;40184;53.362;5.216;2023-04-03T15:36:57;4.38;;;1.45;;
54271;SDS011;40184;53.362;5.216;2023-04-03T15:39:24;6.18;;;1.35;;
54271;SDS011;40184;53.362;5.216;2023-04-03T15:41:51;4.32;;;1.20;;
54271;SDS011;40184;53.362;5.216;2023-04-03T15:44:17;2.78;;;1.30;;
54271;SDS011;40184;53.362;5.216;2023-04-03T15:46:44;3.78;;;1.00;;
54271;SDS011;40184;53.362;5.216;2023-04-03T15:49:11;2.30;;;1.23;;
54271;SDS011;40184;53.362;5.216;2023-04-03T15:51:37;3.80;;;1.40;;
54271;SDS011;40184;53.362;5.216;2023-04-03T15:54:03;4.47;;;1.35;;
54271;SDS011;40184;53.362;5.216;2023-04-03T15:56:29;1.60;;;0.95;;
54271;SDS011;40184;53.362;5.216;2023-04-03T15:58:55;3.13;;;1.27;;
54271;SDS011;40184;53.362;5.216;2023-04-03T16:01:20;4.25;;;1.77;;
54271;SDS011;40184;53.362;5.216;2023-04-03T16:03:46;3.28;;;1.05;;
54271;SDS011;40184;53.362;5.216;2023-04-03T16:06:12;4.47;;;1.08;;
54271;SDS011;40184;53.362;5.216;2023-04-03T16:08:40;2.97;;;1.50;;
54271;SDS011;40184;53.362;5.216;2023-04-03T16:11:06;3.15;;;0.90;;
54271;SDS011;40184;53.362;5.216;2023-04-03T16:13:32;2.10;;;0.93;;
54271;SDS011;40184;53.362;5.216;2023-04-03T16:15:58;3.92;;;1.52;;
54271;SDS011;40184;53.362;5.216;2023-04-03T16:18:25;7.15;;;1.55;;
54271;SDS011;40184;53.362;5.216;2023-04-03T16:20:51;5.80;;;1.13;;
54271;SDS011;40184;53.362;5.216;2023-04-03T16:23:17;2.22;;;0.70;;
54271;SDS011;40184;53.362;5.216;2023-04-03T16:25:43;3.08;;;1.92;;
54271;SDS011;40184;53.362;5.216;2023-04-03T16:28:11;17.83;;;7.10;;
54271;SDS011;40184;53.362;5.216;2023-04-03T16:30:38;11.00;;;3.88;;
54271;SDS011;40184;53.362;5.216;2023-04-03T16:33:08;7.22;;;3.10;;
54271;SDS011;40184;53.362;5.216;2023-04-03T16:35:34;6.00;;;1.58;;
54271;SDS011;40184;53.362;5.216;2023-04-03T16:38:00;4.72;;;2.35;;
54271;SDS011;40184;53.362;5.216;2023-04-03T16:40:26;3.15;;;1.77;;
54271;SDS011;40184;53.362;5.216;2023-04-03T16:42:52;5.78;;;1.58;;
54271;SDS011;40184;53.362;5.216;2023-04-03T16:45:17;2.97;;;1.40;;
54271;SDS011;40184;53.362;5.216;2023-04-03T16:47:43;5.38;;;1.20;;
54271;SDS011;40184;53.362;5.216;2023-04-03T16:50:09;4.85;;;1.33;;
54271;SDS011;40184;53.362;5.216;2023-04-03T16:52:35;5.78;;;2.50;;
54271;SDS011;40184;53.362;5.216;2023-04-03T16:55:01;2.15;;;1.13;;
54271;SDS011;40184;53.362;5.216;2023-04-03T16:57:27;2.33;;;1.00;;